Terminal Aerodrome Forecast
Issued by NWS

Home | Current Version | Previous Version | Text Only | Print | Product List | Glossary Off
Versions: 1 2 3 4 5 6 7 8 9 10 11 12 13 14 15 16 17 18 19 20

000
FTUS43 KGRB 280900 AAA
TAFCWA
TAF AMD
KCWA 280942Z 2810/2906 27011G20KT P6SM SCT015 BKN070
      TEMPO 2810/2814 BKN015
     FM281500 26016G26KT P6SM SCT025 OVC040
     FM290000 27013G20KT P6SM OVC030
      AMD LTD TO CLD VIS AND WIND TIL 281200=

USA.gov is the U.S. government's official web portal to all federal, state and local government web resources and services.